createdAt,value
2024-01-19T00:00:43.768Z,91
2024-01-19T00:01:29.626Z,91
2024-01-19T00:02:15.701Z,91
2024-01-19T00:03:01.859Z,91
2024-01-19T00:03:47.649Z,91
2024-01-19T00:04:33.644Z,91
2024-01-19T00:05:19.680Z,91
2024-01-19T00:06:05.799Z,91
2024-01-19T00:06:51.647Z,91
2024-01-19T00:07:37.748Z,91
2024-01-19T00:08:23.615Z,91
2024-01-19T00:09:10.443Z,91
2024-01-19T00:09:55.673Z,91
2024-01-19T00:10:41.675Z,91
2024-01-19T00:11:27.756Z,91
2024-01-19T00:12:13.592Z,91
2024-01-19T00:12:59.596Z,91
2024-01-19T00:13:45.727Z,91
2024-01-19T00:14:31.670Z,91
2024-01-19T00:15:18.301Z,91
2024-01-19T00:16:03.650Z,91
2024-01-19T00:16:49.646Z,91
2024-01-19T00:17:35.781Z,91
2024-01-19T00:18:21.801Z,91
2024-01-19T00:19:07.764Z,91
2024-01-19T00:19:54.956Z,91
2024-01-19T00:20:39.734Z,91
2024-01-19T00:21:25.660Z,91
2024-01-19T00:22:11.729Z,91
2024-01-19T00:22:57.689Z,91
2024-01-19T00:23:43.737Z,91
2024-01-19T00:24:29.625Z,91
2024-01-19T00:25:15.658Z,91
2024-01-19T00:26:01.723Z,91
2024-01-19T00:26:47.719Z,91
2024-01-19T00:27:33.782Z,91
2024-01-19T00:28:19.704Z,91
2024-01-19T00:29:05.706Z,91
2024-01-19T00:29:51.764Z,91
2024-01-19T00:30:37.862Z,91
2024-01-19T00:31:23.641Z,91
2024-01-19T00:32:09.621Z,91
2024-01-19T00:32:55.855Z,91
2024-01-19T00:33:41.788Z,91
2024-01-19T00:34:27.749Z,91
2024-01-19T00:35:15.414Z,91
2024-01-19T00:35:59.775Z,91
2024-01-19T00:36:45.964Z,91
2024-01-19T00:37:31.803Z,91
2024-01-19T00:38:17.837Z,91
2024-01-19T00:39:03.933Z,91
2024-01-19T00:39:49.973Z,91
2024-01-19T00:40:35.934Z,91
2024-01-19T00:41:21.989Z,91
2024-01-19T00:42:07.985Z,91
2024-01-19T00:42:53.927Z,91
2024-01-19T00:43:39.772Z,91
2024-01-19T00:44:25.881Z,91
2024-01-19T00:45:12.141Z,91
2024-01-19T00:45:57.895Z,91
2024-01-19T00:46:43.857Z,91
2024-01-19T00:47:29.865Z,91
2024-01-19T00:48:16.107Z,91
2024-01-19T00:49:01.743Z,91
2024-01-19T00:49:47.700Z,91
2024-01-19T00:50:33.836Z,91
2024-01-19T00:51:19.701Z,91
2024-01-19T00:52:05.736Z,91
2024-01-19T00:52:51.741Z,91
2024-01-19T00:53:37.873Z,91
2024-01-19T00:54:23.720Z,91
2024-01-19T00:55:09.707Z,91
2024-01-19T00:55:55.791Z,91
2024-01-19T00:56:41.832Z,91
2024-01-19T00:57:27.768Z,91
2024-01-19T00:58:13.798Z,91
2024-01-19T00:58:59.695Z,91
2024-01-19T00:59:45.900Z,91
2024-01-19T01:00:31.874Z,91
2024-01-19T01:01:17.804Z,91
2024-01-19T01:02:03.795Z,91
2024-01-19T01:02:49.843Z,91
2024-01-19T01:03:35.795Z,91
2024-01-19T01:04:21.965Z,91
2024-01-19T01:05:07.884Z,91
2024-01-19T01:05:53.792Z,91
2024-01-19T01:06:39.941Z,91
2024-01-19T01:07:25.754Z,91
2024-01-19T01:08:11.723Z,91
2024-01-19T01:08:57.816Z,91
2024-01-19T01:09:43.790Z,91
2024-01-19T01:10:29.760Z,91
2024-01-19T01:11:15.857Z,91
2024-01-19T01:12:01.743Z,91
2024-01-19T01:12:47.787Z,91
2024-01-19T01:13:33.838Z,91
2024-01-19T01:14:19.832Z,91
2024-01-19T01:15:05.978Z,91
2024-01-19T01:15:51.879Z,92
2024-01-19T01:16:37.868Z,92
2024-01-19T01:17:23.952Z,92
2024-01-19T01:18:10.035Z,92
2024-01-19T01:18:55.901Z,92
2024-01-19T01:19:41.803Z,92
2024-01-19T01:20:27.856Z,92
2024-01-19T01:21:13.751Z,92
2024-01-19T01:21:59.764Z,92
2024-01-19T01:22:45.850Z,92
2024-01-19T01:23:31.780Z,92
2024-01-19T01:24:17.873Z,92
2024-01-19T01:25:03.817Z,92
2024-01-19T01:25:49.822Z,92
2024-01-19T01:26:35.873Z,92
2024-01-19T01:27:21.876Z,92
2024-01-19T01:28:07.829Z,92
2024-01-19T01:28:53.778Z,92
2024-01-19T01:29:39.810Z,92
2024-01-19T01:30:25.999Z,92
2024-01-19T01:31:11.844Z,92
2024-01-19T01:31:57.833Z,92
2024-01-19T01:32:43.945Z,92
2024-01-19T01:33:30.040Z,92
2024-01-19T01:34:15.930Z,92
2024-01-19T01:35:01.820Z,92
2024-01-19T01:35:47.824Z,92
2024-01-19T01:36:34.186Z,92
2024-01-19T01:37:19.812Z,92
2024-01-19T01:38:05.894Z,92
2024-01-19T01:38:51.901Z,92
2024-01-19T01:39:37.910Z,92
2024-01-19T01:40:23.799Z,92
2024-01-19T01:41:09.947Z,92
2024-01-19T01:41:55.962Z,92
2024-01-19T01:42:41.898Z,92
2024-01-19T01:43:27.867Z,92
2024-01-19T01:44:13.939Z,92
2024-01-19T01:44:59.820Z,92
2024-01-19T01:45:46.050Z,92
2024-01-19T01:46:31.827Z,92
2024-01-19T01:47:18.050Z,92
2024-01-19T01:48:04.052Z,92
2024-01-19T01:48:50.060Z,92
2024-01-19T01:49:36.117Z,92
2024-01-19T01:50:22.109Z,92
2024-01-19T01:51:08.049Z,92
2024-01-19T01:51:53.816Z,93
2024-01-19T01:52:39.832Z,93
2024-01-19T01:53:25.984Z,93
2024-01-19T01:54:11.959Z,93
2024-01-19T01:54:57.899Z,93
2024-01-19T01:55:43.883Z,93
2024-01-19T01:56:29.872Z,93
2024-01-19T01:57:15.963Z,93
2024-01-19T01:58:01.927Z,93
2024-01-19T01:58:47.926Z,93
2024-01-19T01:59:34.073Z,93
2024-01-19T02:00:20.069Z,93
2024-01-19T02:01:05.926Z,93
2024-01-19T02:01:51.931Z,93
2024-01-19T02:02:37.961Z,93
2024-01-19T02:03:23.884Z,93
2024-01-19T02:04:09.884Z,93
2024-01-19T02:04:55.911Z,93
2024-01-19T02:05:42.160Z,93
2024-01-19T02:06:28.077Z,93
2024-01-19T02:07:14.146Z,93
2024-01-19T02:07:59.950Z,93
2024-01-19T02:08:46.044Z,93
2024-01-19T02:09:31.864Z,93
2024-01-19T02:10:17.920Z,93
2024-01-19T02:11:03.956Z,93
2024-01-19T02:11:50.017Z,93
2024-01-19T02:12:35.927Z,93
2024-01-19T02:13:21.962Z,93
2024-01-19T02:14:07.990Z,93
2024-01-19T02:14:53.914Z,93
2024-01-19T02:15:40.033Z,93
2024-01-19T02:16:25.910Z,93
2024-01-19T02:17:12.075Z,93
2024-01-19T02:17:58.196Z,93
2024-01-19T02:18:44.067Z,93
2024-01-19T02:19:30.263Z,93
2024-01-19T02:20:16.093Z,93
2024-01-19T02:21:02.014Z,93
2024-01-19T02:21:47.900Z,93
2024-01-19T02:22:33.975Z,93
2024-01-19T02:23:20.034Z,93
2024-01-19T02:24:05.985Z,93
2024-01-19T02:24:52.018Z,93
2024-01-19T02:25:38.149Z,93
2024-01-19T02:26:24.053Z,93
2024-01-19T02:27:09.881Z,93
2024-01-19T02:27:56.007Z,93
2024-01-19T02:28:41.974Z,93
2024-01-19T02:29:28.040Z,93
2024-01-19T02:30:14.161Z,93
2024-01-19T02:31:00.011Z,93
2024-01-19T02:31:46.050Z,93
2024-01-19T02:32:32.057Z,93
2024-01-19T02:33:18.167Z,93
2024-01-19T02:34:03.944Z,93
2024-01-19T02:34:50.081Z,93
2024-01-19T02:35:36.111Z,93
2024-01-19T02:36:22.041Z,93
2024-01-19T02:37:08.030Z,93
2024-01-19T02:37:53.979Z,93
2024-01-19T02:38:39.974Z,93
2024-01-19T02:39:26.050Z,93
2024-01-19T02:40:12.022Z,93
2024-01-19T02:40:58.040Z,93
2024-01-19T02:41:43.985Z,93
2024-01-19T02:42:29.997Z,93
2024-01-19T02:43:16.119Z,93
2024-01-19T02:44:01.956Z,93
2024-01-19T02:44:48.033Z,93
2024-01-19T02:45:34.146Z,93
2024-01-19T02:46:20.067Z,93
2024-01-19T02:47:06.014Z,93
2024-01-19T02:47:52.100Z,93
2024-01-19T02:48:38.181Z,93
2024-01-19T02:49:24.089Z,93
2024-01-19T02:50:09.991Z,93
2024-01-19T02:50:56.208Z,93
2024-01-19T02:51:42.065Z,93
2024-01-19T02:52:28.080Z,93
2024-01-19T02:53:14.042Z,93
2024-01-19T02:54:00.038Z,93
2024-01-19T02:54:46.097Z,93
2024-01-19T02:55:32.008Z,93
2024-01-19T02:56:18.049Z,93
2024-01-19T02:57:04.003Z,93
2024-01-19T02:57:50.015Z,93
2024-01-19T02:58:36.050Z,93
2024-01-19T02:59:22.028Z,93
2024-01-19T03:00:08.226Z,93
2024-01-19T03:00:54.147Z,93
2024-01-19T03:01:40.051Z,93
2024-01-19T03:02:26.091Z,93
2024-01-19T03:03:12.008Z,93
2024-01-19T03:03:58.069Z,93
2024-01-19T03:04:44.062Z,93
2024-01-19T03:05:30.219Z,93
2024-01-19T03:06:16.262Z,93
2024-01-19T03:07:02.000Z,93
2024-01-19T03:07:48.007Z,93
2024-01-19T03:08:34.152Z,93
2024-01-19T03:09:20.097Z,93
2024-01-19T03:10:06.069Z,93
2024-01-19T03:10:52.132Z,93
2024-01-19T03:11:38.287Z,93
2024-01-19T03:12:24.030Z,93
2024-01-19T03:13:10.028Z,93
2024-01-19T03:13:56.066Z,93
2024-01-19T03:14:42.076Z,93
2024-01-19T03:15:28.132Z,93
2024-01-19T03:16:14.099Z,93
2024-01-19T03:17:00.025Z,93
2024-01-19T03:17:46.158Z,93
2024-01-19T03:18:32.032Z,93
2024-01-19T03:19:18.098Z,93
2024-01-19T03:20:04.085Z,93
2024-01-19T03:20:50.177Z,93
2024-01-19T03:21:36.062Z,93
2024-01-19T03:22:22.046Z,93
2024-01-19T03:23:08.091Z,93
2024-01-19T03:23:54.115Z,93
2024-01-19T03:24:40.043Z,93
2024-01-19T03:25:26.132Z,93
2024-01-19T03:26:12.114Z,93
2024-01-19T03:26:58.163Z,93
2024-01-19T03:27:44.123Z,93
2024-01-19T03:28:30.067Z,93
2024-01-19T03:29:16.279Z,93
2024-01-19T03:30:02.349Z,93
2024-01-19T03:30:48.215Z,93
2024-01-19T03:31:34.125Z,93
2024-01-19T03:32:20.150Z,93
2024-01-19T03:33:06.306Z,93
2024-01-19T03:33:54.073Z,93
2024-01-19T03:34:38.236Z,93
2024-01-19T03:35:24.121Z,93
2024-01-19T03:36:10.113Z,93
2024-01-19T03:36:56.139Z,93
2024-01-19T03:37:42.138Z,93
2024-01-19T03:38:28.241Z,93
2024-01-19T03:39:14.138Z,93
2024-01-19T03:40:00.089Z,93
2024-01-19T03:40:46.131Z,93
2024-01-19T03:41:32.066Z,93
2024-01-19T03:42:18.105Z,93
2024-01-19T03:43:04.128Z,94
2024-01-19T03:43:50.121Z,93
2024-01-19T03:44:36.199Z,94
2024-01-19T03:45:22.228Z,94
2024-01-19T03:46:08.198Z,94
2024-01-19T03:46:54.147Z,94
2024-01-19T03:47:40.244Z,93
2024-01-19T03:48:26.259Z,93
2024-01-19T03:49:12.145Z,93
2024-01-19T03:49:58.216Z,93
2024-01-19T03:50:44.186Z,94
2024-01-19T03:51:30.253Z,93
2024-01-19T03:52:16.092Z,94
2024-01-19T03:53:02.110Z,93
2024-01-19T03:53:48.180Z,93
2024-01-19T03:54:34.142Z,93
2024-01-19T03:55:20.209Z,93
2024-01-19T03:56:06.181Z,94
2024-01-19T03:56:52.217Z,94
2024-01-19T03:57:38.261Z,93
2024-01-19T03:58:24.126Z,93
2024-01-19T03:59:10.183Z,94
2024-01-19T03:59:56.216Z,94
2024-01-19T04:00:42.288Z,94
2024-01-19T04:01:28.200Z,94
2024-01-19T04:02:14.147Z,94
2024-01-19T04:03:00.445Z,94
2024-01-19T04:03:46.479Z,94
2024-01-19T04:04:32.299Z,94
2024-01-19T04:05:18.296Z,94
2024-01-19T04:06:04.409Z,94
2024-01-19T04:06:50.265Z,94
2024-01-19T04:07:36.215Z,94
2024-01-19T04:08:22.238Z,94
2024-01-19T04:09:08.249Z,94
2024-01-19T04:09:54.212Z,94
2024-01-19T04:10:40.192Z,94
2024-01-19T04:11:26.242Z,94
2024-01-19T04:12:12.167Z,94
2024-01-19T04:12:58.248Z,94
2024-01-19T04:13:44.227Z,94
2024-01-19T04:14:30.209Z,94
2024-01-19T04:15:16.379Z,94
2024-01-19T04:16:02.202Z,94
2024-01-19T04:16:48.190Z,94
2024-01-19T04:17:34.341Z,94
2024-01-19T04:18:20.312Z,94
2024-01-19T04:19:06.342Z,94
2024-01-19T04:19:52.179Z,94
2024-01-19T04:20:38.350Z,94
2024-01-19T04:21:24.194Z,94
2024-01-19T04:22:10.155Z,94
2024-01-19T04:22:56.247Z,94
2024-01-19T04:23:42.205Z,94
2024-01-19T04:24:28.238Z,94
2024-01-19T04:25:14.325Z,94
2024-01-19T04:26:00.231Z,94
2024-01-19T04:26:46.320Z,94
2024-01-19T04:27:32.257Z,94
2024-01-19T04:28:18.244Z,94
2024-01-19T04:29:04.209Z,94
2024-01-19T04:29:50.323Z,94
2024-01-19T04:30:36.407Z,94
2024-01-19T04:31:22.248Z,94
2024-01-19T04:32:08.348Z,94
2024-01-19T04:32:54.358Z,94
2024-01-19T04:33:40.271Z,94
2024-01-19T04:34:26.241Z,94
2024-01-19T04:35:12.333Z,94
2024-01-19T04:35:58.320Z,94
2024-01-19T04:36:44.282Z,94
2024-01-19T04:37:30.366Z,94
2024-01-19T04:38:16.206Z,94
2024-01-19T04:39:02.306Z,94
2024-01-19T04:39:48.322Z,94
2024-01-19T04:40:34.258Z,94
2024-01-19T04:41:20.297Z,94
2024-01-19T04:42:06.311Z,94
2024-01-19T04:42:52.295Z,94
2024-01-19T04:43:38.299Z,94
2024-01-19T04:44:24.253Z,94
2024-01-19T04:45:10.291Z,94
2024-01-19T04:45:56.328Z,94
2024-01-19T04:46:42.324Z,94
2024-01-19T04:47:28.382Z,94
2024-01-19T04:48:14.453Z,94
2024-01-19T04:49:00.422Z,94
2024-01-19T04:49:46.350Z,94
2024-01-19T04:50:32.255Z,94
2024-01-19T04:51:18.251Z,94
2024-01-19T04:52:04.317Z,94
2024-01-19T04:52:50.310Z,94
2024-01-19T04:53:36.388Z,94
2024-01-19T04:54:22.242Z,93
2024-01-19T04:55:08.331Z,93
2024-01-19T04:55:54.328Z,93
2024-01-19T04:56:40.901Z,93
2024-01-19T04:57:26.314Z,93
2024-01-19T04:58:12.281Z,93
2024-01-19T04:58:58.335Z,93
2024-01-19T04:59:44.372Z,93
2024-01-19T05:00:30.346Z,93
2024-01-19T05:01:16.364Z,93
2024-01-19T05:02:02.301Z,93
2024-01-19T05:02:48.394Z,93
2024-01-19T05:03:34.320Z,93
2024-01-19T05:04:20.334Z,93
2024-01-19T05:05:06.355Z,93
2024-01-19T05:05:52.401Z,93
2024-01-19T05:06:38.760Z,93
2024-01-19T05:07:24.331Z,93
2024-01-19T05:08:10.321Z,93
2024-01-19T05:08:56.415Z,93
2024-01-19T05:09:42.344Z,93
2024-01-19T05:10:28.397Z,93
2024-01-19T05:11:14.374Z,93
2024-01-19T05:12:00.390Z,93
2024-01-19T05:12:46.268Z,93
2024-01-19T05:13:32.327Z,93
2024-01-19T05:14:18.330Z,93
2024-01-19T05:15:04.431Z,93
2024-01-19T05:15:50.369Z,93
2024-01-19T05:16:36.325Z,93
2024-01-19T05:17:22.262Z,93
2024-01-19T05:18:08.422Z,93
2024-01-19T05:18:54.378Z,93
2024-01-19T05:19:40.331Z,93
2024-01-19T05:20:26.414Z,93
2024-01-19T05:21:12.337Z,93
2024-01-19T05:21:58.387Z,93
2024-01-19T05:22:44.395Z,93
2024-01-19T05:23:30.588Z,93
2024-01-19T05:24:16.420Z,93
2024-01-19T05:25:02.351Z,93
2024-01-19T05:25:48.392Z,93
2024-01-19T05:26:34.464Z,93
2024-01-19T05:27:20.416Z,93
2024-01-19T05:28:06.349Z,93
2024-01-19T05:28:52.334Z,93
2024-01-19T05:29:38.464Z,93
2024-01-19T05:30:24.423Z,93
2024-01-19T05:31:10.372Z,93
2024-01-19T05:31:56.382Z,93
2024-01-19T05:32:42.607Z,93
2024-01-19T05:33:28.646Z,93
2024-01-19T05:34:14.611Z,93
2024-01-19T05:35:00.333Z,93
2024-01-19T05:35:46.478Z,93
2024-01-19T05:36:32.358Z,93
2024-01-19T05:37:18.390Z,93
2024-01-19T05:38:04.440Z,93
2024-01-19T05:38:50.478Z,93
2024-01-19T05:39:36.426Z,93
2024-01-19T05:40:22.452Z,93
2024-01-19T05:41:08.405Z,93
2024-01-19T05:41:54.477Z,93
2024-01-19T05:42:40.395Z,93
2024-01-19T05:43:26.412Z,93
2024-01-19T05:44:12.498Z,93
2024-01-19T05:44:58.504Z,93
2024-01-19T05:45:44.556Z,93
2024-01-19T05:46:30.372Z,93
2024-01-19T05:47:16.425Z,93
2024-01-19T05:48:02.465Z,93
2024-01-19T05:48:48.438Z,93
2024-01-19T05:49:34.400Z,93
2024-01-19T05:50:20.492Z,93
2024-01-19T05:51:06.455Z,93
2024-01-19T05:51:52.397Z,93
2024-01-19T05:52:38.550Z,93
2024-01-19T05:53:24.414Z,93
2024-01-19T05:54:10.342Z,93
2024-01-19T05:54:56.445Z,93
2024-01-19T05:55:42.409Z,93
2024-01-19T05:56:28.499Z,93
2024-01-19T05:57:14.468Z,93
2024-01-19T05:58:00.393Z,93
2024-01-19T05:58:46.394Z,93
2024-01-19T05:59:32.449Z,93
2024-01-19T06:00:18.715Z,93
2024-01-19T06:01:04.501Z,93
2024-01-19T06:01:50.452Z,93
2024-01-19T06:02:36.461Z,93
2024-01-19T06:03:22.491Z,93
2024-01-19T06:04:08.486Z,93
2024-01-19T06:04:54.404Z,93
2024-01-19T06:05:40.534Z,93
2024-01-19T06:06:26.575Z,93
2024-01-19T06:07:12.456Z,93
2024-01-19T06:07:58.523Z,93
2024-01-19T06:08:44.580Z,93
2024-01-19T06:09:30.630Z,93
2024-01-19T06:10:16.514Z,93
2024-01-19T06:11:02.411Z,93
2024-01-19T06:11:48.506Z,93
2024-01-19T06:12:34.521Z,93
2024-01-19T06:13:20.508Z,93
2024-01-19T06:14:06.497Z,93
2024-01-19T06:14:52.471Z,93
2024-01-19T06:15:38.685Z,93
2024-01-19T06:16:24.467Z,93
2024-01-19T06:17:10.499Z,93
2024-01-19T06:17:56.635Z,93
2024-01-19T06:18:42.567Z,93
2024-01-19T06:19:28.555Z,93
2024-01-19T06:20:14.481Z,93
2024-01-19T06:21:00.557Z,93
2024-01-19T06:21:46.505Z,93
2024-01-19T06:22:32.479Z,93
2024-01-19T06:23:18.538Z,93
2024-01-19T06:24:04.537Z,93
2024-01-19T06:24:50.513Z,93
2024-01-19T06:25:36.561Z,93
2024-01-19T06:26:22.551Z,93
2024-01-19T06:27:08.541Z,93
2024-01-19T06:27:54.557Z,93
2024-01-19T06:28:40.493Z,93
2024-01-19T06:29:26.535Z,93
2024-01-19T06:30:12.720Z,93
2024-01-19T06:30:58.515Z,93
2024-01-19T06:31:44.533Z,93
2024-01-19T06:32:30.548Z,93
2024-01-19T06:33:16.719Z,93
2024-01-19T06:34:02.571Z,93
2024-01-19T06:34:48.584Z,93
2024-01-19T06:35:34.696Z,93
2024-01-19T06:36:20.508Z,93
2024-01-19T06:37:06.567Z,93
2024-01-19T06:37:52.596Z,93
2024-01-19T06:38:38.647Z,93
2024-01-19T06:39:24.630Z,93
2024-01-19T06:40:10.474Z,93
2024-01-19T06:40:56.604Z,93
2024-01-19T06:41:42.584Z,93
2024-01-19T06:42:28.610Z,93
2024-01-19T06:43:14.611Z,93
2024-01-19T06:44:00.604Z,93
2024-01-19T06:44:46.650Z,93
2024-01-19T06:45:32.631Z,93
2024-01-19T06:46:18.630Z,93
2024-01-19T06:47:04.597Z,93
2024-01-19T06:47:50.679Z,93
2024-01-19T06:48:36.739Z,93
2024-01-19T06:49:22.655Z,93
2024-01-19T06:50:08.625Z,93
2024-01-19T06:50:54.638Z,93
2024-01-19T06:51:40.541Z,93
2024-01-19T06:52:26.578Z,93
2024-01-19T06:53:12.578Z,93
2024-01-19T06:53:58.716Z,93
2024-01-19T06:54:44.641Z,93
2024-01-19T06:55:31.680Z,93
2024-01-19T06:56:16.519Z,93
2024-01-19T06:57:02.777Z,93
2024-01-19T06:57:48.578Z,93
2024-01-19T06:58:34.599Z,93
2024-01-19T06:59:20.590Z,93
2024-01-19T07:00:06.714Z,93
2024-01-19T07:00:52.621Z,93
2024-01-19T07:01:38.648Z,93
2024-01-19T07:02:24.638Z,93
2024-01-19T07:03:10.784Z,93
2024-01-19T07:03:56.770Z,93
2024-01-19T07:04:42.609Z,93
2024-01-19T07:05:28.727Z,93
2024-01-19T07:06:14.697Z,93
2024-01-19T07:07:00.631Z,93
2024-01-19T07:07:46.628Z,93
2024-01-19T07:08:32.556Z,93
2024-01-19T07:09:18.653Z,93
2024-01-19T07:10:04.675Z,93
2024-01-19T07:10:50.703Z,93
2024-01-19T07:11:36.600Z,93
2024-01-19T07:12:22.534Z,93
2024-01-19T07:13:08.654Z,93
2024-01-19T07:13:54.596Z,93
2024-01-19T07:14:40.646Z,93
2024-01-19T07:15:26.770Z,93
2024-01-19T07:16:12.753Z,93
2024-01-19T07:16:58.636Z,93
2024-01-19T07:17:44.728Z,93
2024-01-19T07:18:30.980Z,93
2024-01-19T07:19:16.693Z,93
2024-01-19T07:20:02.648Z,93
2024-01-19T07:20:48.719Z,93
2024-01-19T07:21:34.682Z,93
2024-01-19T07:22:20.786Z,93
2024-01-19T07:23:06.648Z,93
2024-01-19T07:23:52.879Z,93
2024-01-19T07:24:38.801Z,93
2024-01-19T07:25:24.744Z,93
2024-01-19T07:26:10.769Z,93
2024-01-19T07:26:56.793Z,93
2024-01-19T07:27:42.759Z,93
2024-01-19T07:28:28.792Z,93
2024-01-19T07:29:14.742Z,93
2024-01-19T07:30:01.039Z,93
2024-01-19T07:30:46.890Z,93
2024-01-19T07:31:32.719Z,93
2024-01-19T07:32:18.772Z,93
2024-01-19T07:33:09.100Z,93
2024-01-19T07:33:50.925Z,93
2024-01-19T07:34:36.997Z,93
2024-01-19T07:35:23.171Z,93
2024-01-19T07:36:08.844Z,93
2024-01-19T07:36:54.741Z,93
2024-01-19T07:37:40.751Z,93
2024-01-19T07:38:26.810Z,93
2024-01-19T07:39:12.725Z,93
2024-01-19T07:39:58.780Z,93
2024-01-19T07:40:44.791Z,93
2024-01-19T07:41:30.974Z,93
2024-01-19T07:42:16.888Z,93
2024-01-19T07:43:02.716Z,93
2024-01-19T07:43:48.762Z,93
2024-01-19T07:44:34.824Z,93
2024-01-19T07:45:20.881Z,93
2024-01-19T07:46:06.776Z,93
2024-01-19T07:46:52.762Z,93
2024-01-19T07:47:38.917Z,93
2024-01-19T07:48:24.887Z,93
2024-01-19T07:49:10.839Z,93
2024-01-19T07:49:56.794Z,93
2024-01-19T07:50:42.845Z,93
2024-01-19T07:51:28.778Z,93
2024-01-19T07:52:14.841Z,93
2024-01-19T07:53:00.743Z,93
2024-01-19T07:53:46.857Z,93
2024-01-19T07:54:32.800Z,93
2024-01-19T07:55:18.835Z,93
2024-01-19T07:56:04.839Z,93
2024-01-19T07:56:50.859Z,93
2024-01-19T07:57:36.747Z,93
2024-01-19T07:58:22.776Z,93
2024-01-19T07:59:08.805Z,93
2024-01-19T07:59:54.788Z,93
2024-01-19T08:00:40.853Z,93
2024-01-19T08:01:26.836Z,92
2024-01-19T08:02:12.833Z,92
2024-01-19T08:02:58.911Z,92
2024-01-19T08:03:44.896Z,92
2024-01-19T08:04:30.762Z,92
2024-01-19T08:05:17.055Z,92
2024-01-19T08:06:02.878Z,92
2024-01-19T08:06:48.953Z,92
2024-01-19T08:07:34.872Z,92
2024-01-19T08:08:20.832Z,92
2024-01-19T08:09:06.868Z,92
2024-01-19T08:09:52.796Z,92
2024-01-19T08:10:38.889Z,92
2024-01-19T08:11:24.912Z,92
2024-01-19T08:12:10.809Z,92
2024-01-19T08:12:56.853Z,92
2024-01-19T08:13:42.791Z,92
2024-01-19T08:14:28.930Z,92
2024-01-19T08:15:14.955Z,92
2024-01-19T08:16:00.855Z,92
2024-01-19T08:16:46.897Z,92
2024-01-19T08:17:32.921Z,92
2024-01-19T08:18:19.084Z,91
2024-01-19T08:19:04.979Z,91
2024-01-19T08:19:50.884Z,91
2024-01-19T08:20:36.882Z,91
2024-01-19T08:21:22.855Z,91
2024-01-19T08:22:08.964Z,91
2024-01-19T08:22:54.838Z,91
2024-01-19T08:23:40.847Z,91
2024-01-19T08:24:26.850Z,91
2024-01-19T08:25:12.830Z,91
2024-01-19T08:26:00.726Z,91
2024-01-19T08:26:44.933Z,91
2024-01-19T08:27:30.975Z,91
2024-01-19T08:28:16.834Z,91
2024-01-19T08:29:02.834Z,91
2024-01-19T08:29:48.981Z,90
2024-01-19T08:30:34.965Z,90
2024-01-19T08:31:20.912Z,90
2024-01-19T08:32:06.899Z,90
2024-01-19T08:32:52.905Z,90
2024-01-19T08:33:39.046Z,90
2024-01-19T08:34:24.897Z,90
2024-01-19T08:35:11.002Z,90
2024-01-19T08:35:56.978Z,90
2024-01-19T08:36:42.870Z,90
2024-01-19T08:37:28.907Z,90
2024-01-19T08:38:14.911Z,90
2024-01-19T08:39:00.896Z,90
2024-01-19T08:39:46.939Z,90
2024-01-19T08:40:32.932Z,90
2024-01-19T08:41:18.950Z,90
2024-01-19T08:42:04.940Z,89
2024-01-19T08:42:50.886Z,89
2024-01-19T08:43:36.864Z,89
2024-01-19T08:44:22.940Z,89
2024-01-19T08:45:09.088Z,89
2024-01-19T08:45:54.888Z,89
2024-01-19T08:46:40.861Z,89
2024-01-19T08:47:26.945Z,89
2024-01-19T08:48:13.016Z,89
2024-01-19T08:48:58.999Z,89
2024-01-19T08:49:44.948Z,89
2024-01-19T08:50:30.978Z,89
2024-01-19T08:51:17.013Z,89
2024-01-19T08:52:02.888Z,89
2024-01-19T08:52:48.899Z,89
2024-01-19T08:53:34.959Z,88
2024-01-19T08:54:20.897Z,88
2024-01-19T08:55:06.966Z,88
2024-01-19T08:55:52.922Z,88
2024-01-19T08:56:43.356Z,88
2024-01-19T08:57:24.995Z,88
2024-01-19T08:58:10.909Z,88
2024-01-19T08:58:56.895Z,88
2024-01-19T08:59:42.930Z,88
2024-01-19T09:00:29.078Z,88
2024-01-19T09:01:15.124Z,87
2024-01-19T09:02:00.872Z,87
2024-01-19T09:02:54.167Z,87
2024-01-19T09:03:32.972Z,87
2024-01-19T09:04:19.052Z,87
2024-01-19T09:05:05.111Z,87
2024-01-19T09:05:51.089Z,87
2024-01-19T09:06:39.730Z,87
2024-01-19T09:07:23.231Z,87
2024-01-19T09:08:08.987Z,86
2024-01-19T09:08:55.021Z,86
2024-01-19T09:09:40.939Z,86
2024-01-19T09:10:27.216Z,86
2024-01-19T09:11:13.079Z,86
2024-01-19T09:11:59.157Z,86
2024-01-19T09:12:45.034Z,86
2024-01-19T09:13:31.130Z,86
2024-01-19T09:14:17.221Z,85
2024-01-19T09:15:03.136Z,85
2024-01-19T09:15:48.993Z,85
2024-01-19T09:16:34.995Z,85
2024-01-19T09:17:20.993Z,84
2024-01-19T09:18:07.129Z,84
2024-01-19T09:18:53.298Z,84
2024-01-19T09:19:40.391Z,84
2024-01-19T09:20:25.144Z,84
2024-01-19T09:21:11.036Z,84
2024-01-19T09:21:57.035Z,84
2024-01-19T09:22:43.004Z,84
2024-01-19T09:23:29.047Z,84
2024-01-19T09:24:15.118Z,84
2024-01-19T09:25:01.026Z,84
2024-01-19T09:25:47.169Z,84
2024-01-19T09:26:32.988Z,84
2024-01-19T09:27:19.112Z,84
2024-01-19T09:28:05.062Z,84
2024-01-19T09:28:51.021Z,84
2024-01-19T09:29:37.077Z,84
2024-01-19T09:30:23.153Z,85
2024-01-19T09:31:09.092Z,85
2024-01-19T09:31:55.060Z,85
2024-01-19T09:32:41.048Z,85
2024-01-19T09:33:27.303Z,85
2024-01-19T09:34:13.081Z,84
2024-01-19T09:34:59.093Z,84
2024-01-19T09:35:45.189Z,84
2024-01-19T09:36:31.016Z,84
2024-01-19T09:37:17.184Z,84
2024-01-19T09:38:03.071Z,84
2024-01-19T09:38:49.140Z,84
2024-01-19T09:39:35.076Z,84
2024-01-19T09:40:21.218Z,84
2024-01-19T09:41:07.111Z,83
2024-01-19T09:41:53.147Z,83
2024-01-19T09:42:39.142Z,83
2024-01-19T09:43:25.078Z,83
2024-01-19T09:44:11.037Z,84
2024-01-19T09:44:57.072Z,84
2024-01-19T09:45:43.192Z,84
2024-01-19T09:46:29.085Z,84
2024-01-19T09:47:15.082Z,84
2024-01-19T09:48:01.041Z,84
2024-01-19T09:48:47.240Z,84
2024-01-19T09:49:33.014Z,84
2024-01-19T09:50:19.131Z,84
2024-01-19T09:51:05.135Z,84
2024-01-19T09:51:51.106Z,84
2024-01-19T09:52:37.096Z,84
2024-01-19T09:53:23.102Z,84
2024-01-19T09:54:09.213Z,84
2024-01-19T09:54:55.051Z,84
2024-01-19T09:55:41.072Z,83
2024-01-19T09:56:27.098Z,83
2024-01-19T09:57:13.263Z,83
2024-01-19T09:57:59.154Z,83
2024-01-19T09:58:45.150Z,83
2024-01-19T09:59:31.154Z,83
2024-01-19T10:00:17.388Z,83
2024-01-19T10:01:03.111Z,84
2024-01-19T10:01:49.094Z,84
2024-01-19T10:02:35.135Z,84
2024-01-19T10:03:21.146Z,84
2024-01-19T10:04:07.183Z,84
2024-01-19T10:04:53.233Z,84
2024-01-19T10:05:39.297Z,84
2024-01-19T10:06:25.210Z,84
2024-01-19T10:07:11.037Z,84
2024-01-19T10:07:57.258Z,84
2024-01-19T10:08:43.131Z,84
2024-01-19T10:09:29.163Z,84
2024-01-19T10:10:15.192Z,84
2024-01-19T10:11:01.117Z,84
2024-01-19T10:11:47.242Z,84
2024-01-19T10:12:33.078Z,84
2024-01-19T10:13:19.196Z,84
2024-01-19T10:14:05.205Z,85
2024-01-19T10:14:51.308Z,84
2024-01-19T10:15:37.242Z,84
2024-01-19T10:16:23.171Z,85
2024-01-19T10:17:09.164Z,85
2024-01-19T10:17:55.245Z,85
2024-01-19T10:18:41.405Z,85
2024-01-19T10:19:27.191Z,84
2024-01-19T10:20:13.133Z,84
2024-01-19T10:20:59.154Z,84
2024-01-19T10:21:45.197Z,84
2024-01-19T10:22:31.191Z,84
2024-01-19T10:23:17.226Z,84
2024-01-19T10:24:03.174Z,83
2024-01-19T10:24:49.701Z,83
2024-01-19T10:25:35.275Z,83
2024-01-19T10:26:21.172Z,83
2024-01-19T10:27:07.165Z,83
2024-01-19T10:27:53.794Z,83
2024-01-19T10:28:39.192Z,83
2024-01-19T10:29:25.215Z,83
2024-01-19T10:30:11.412Z,84
2024-01-19T10:30:57.202Z,84
2024-01-19T10:31:43.230Z,84
2024-01-19T10:32:29.259Z,84
2024-01-19T10:33:15.513Z,84
2024-01-19T10:34:01.572Z,83
2024-01-19T10:34:47.320Z,84
2024-01-19T10:35:33.133Z,84
2024-01-19T10:36:19.252Z,84
2024-01-19T10:37:05.191Z,84
2024-01-19T10:37:51.231Z,83
2024-01-19T10:38:37.290Z,83
2024-01-19T10:39:23.278Z,83
2024-01-19T10:40:09.277Z,83
2024-01-19T10:40:55.291Z,83
2024-01-19T10:41:41.157Z,82
2024-01-19T10:42:27.255Z,81
2024-01-19T10:43:13.237Z,81
2024-01-19T10:43:59.226Z,81
2024-01-19T10:44:45.260Z,81
2024-01-19T10:45:31.283Z,80
2024-01-19T10:46:17.276Z,80
2024-01-19T10:47:05.619Z,79
2024-01-19T10:47:49.192Z,79
2024-01-19T10:48:35.354Z,79
2024-01-19T10:49:21.316Z,79
2024-01-19T10:50:07.230Z,79
2024-01-19T10:50:53.179Z,79
2024-01-19T10:51:39.263Z,79
2024-01-19T10:52:25.193Z,79
2024-01-19T10:53:11.188Z,79
2024-01-19T10:53:57.275Z,79
2024-01-19T10:54:43.265Z,79
2024-01-19T10:55:29.285Z,78
2024-01-19T10:56:15.269Z,78